Time;durP1;ratioP1;P1;durP2;ratioP2;P2;SDS_P1;SDS_P2;PMS_P1;PMS_P2;Temp;Humidity;BMP_temperature;BMP_pressure;BME280_temperature;BME280_humidity;BME280_pressure;Samples;Min_cycle;Max_cycle;Signal;HPM_P1;HPM_P2
2021/04/16 00:02:08;;;;;;;3.90;3.37;;;;;;;9.59;73.05;99080.93;1695948;82;21573;-66
2021/04/16 00:04:36;;;;;;;4.10;3.70;;;;;;;9.61;73.17;99080.39;1700873;82;21624;-66
2021/04/16 00:07:08;;;;;;;3.60;3.30;;;;;;;9.64;72.93;99078.91;1697722;82;22246;-66
2021/04/16 00:09:38;;;;;;;3.55;3.25;;;;;;;9.49;72.93;99079.21;1700471;82;21577;-66
2021/04/16 00:12:08;;;;;;;3.75;3.45;;;;;;;9.46;73.02;99080.66;1697399;82;21692;-66
2021/04/16 00:14:38;;;;;;;3.37;3.17;;;;;;;9.47;72.88;99085.44;1673927;83;21970;-66
2021/04/16 00:17:09;;;;;;;3.10;2.83;;;;;;;9.37;72.82;99073.69;1697142;82;21850;-66
2021/04/16 00:19:38;;;;;;;5.50;2.90;;;;;;;9.34;72.82;99074.22;1694062;82;21668;-66
2021/04/16 00:22:07;;;;;;;3.60;3.30;;;;;;;9.40;73.10;99068.27;1694717;82;21207;-67
2021/04/16 00:24:36;;;;;;;2.95;2.75;;;;;;;9.50;72.99;99072.18;1695189;82;21627;-67
2021/04/16 00:27:07;;;;;;;3.20;2.90;;;;;;;9.52;72.85;99071.64;1696307;82;21226;-66
2021/04/16 00:29:35;;;;;;;3.95;3.30;;;;;;;9.51;72.67;99077.36;1695219;82;21972;-66
2021/04/16 00:32:05;;;;;;;4.00;3.70;;;;;;;9.46;72.79;99082.44;1693324;82;21689;-67
2021/04/16 00:34:33;;;;;;;5.20;4.15;;;;;;;9.34;72.77;99084.71;1693251;82;21549;-66
2021/04/16 00:37:05;;;;;;;3.85;3.20;;;;;;;9.30;72.90;99087.06;1692152;82;21729;-67
2021/04/16 00:39:38;;;;;;;3.55;3.27;;;;;;;9.37;73.20;99082.87;1696090;82;21577;-68
2021/04/16 00:42:08;;;;;;;4.00;3.42;;;;;;;9.48;73.12;99081.91;1691768;83;21628;-68
2021/04/16 00:44:40;;;;;;;4.03;3.20;;;;;;;9.43;72.94;99081.26;1691986;82;21649;-67
2021/04/16 00:47:14;;;;;;;3.70;3.30;;;;;;;9.40;72.98;99080.95;1690744;83;21671;-66
2021/04/16 00:49:49;;;;;;;3.98;3.58;;;;;;;9.42;72.88;99079.11;1676823;82;21198;-67
2021/04/16 00:52:30;;;;;;;3.47;3.17;;;;;;;9.43;72.79;99081.26;1692133;82;21969;-66
2021/04/16 00:55:06;;;;;;;3.47;3.20;;;;;;;9.46;72.42;99074.56;1672536;82;22221;-68
2021/04/16 00:57:36;;;;;;;3.67;2.52;;;;;;;9.43;72.91;99082.10;1673061;83;21663;-66
2021/04/16 01:00:07;;;;;;;3.67;3.33;;;;;;;9.49;72.81;99080.95;1696354;82;21704;-66
2021/04/16 01:02:38;;;;;;;3.47;3.17;;;;;;;9.35;72.78;99085.09;1696360;82;21615;-65
2021/04/16 01:05:10;;;;;;;3.20;2.98;;;;;;;9.29;72.95;99079.29;1686774;83;21746;-65
2021/04/16 01:07:39;;;;;;;3.52;3.22;;;;;;;9.22;73.04;99080.49;1690993;83;22135;-66
2021/04/16 01:10:08;;;;;;;3.22;2.92;;;;;;;9.14;73.29;99085.63;1697043;82;21684;-65
2021/04/16 01:12:37;;;;;;;3.02;2.83;;;;;;;9.20;73.59;99082.34;1649254;83;21659;-65
2021/04/16 01:15:29;;;;;;;3.67;2.62;;;;;;;9.34;73.45;99079.47;1695748;83;21590;-65
2021/04/16 01:18:16;;;;;;;3.62;3.25;;;;;;;9.34;73.16;99077.28;1694672;82;21204;-67
2021/04/16 01:20:49;;;;;;;3.02;2.83;;;;;;;9.21;73.14;99077.47;1689853;82;21627;-64
2021/04/16 01:24:13;;;;;;;3.83;2.90;;;;;;;9.13;73.26;99078.66;1696396;82;21564;-65
2021/04/16 01:26:43;;;;;;;3.50;3.20;;;;;;;9.07;73.30;99073.70;1681493;82;21804;-67
2021/04/16 01:29:13;;;;;;;3.70;3.25;;;;;;;9.05;73.22;99074.70;1725425;80;21673;-66
2021/04/16 01:31:48;;;;;;;4.17;3.85;;;;;;;9.09;73.45;99077.58;1733554;80;21571;-66
2021/04/16 01:34:21;;;;;;;3.60;3.30;;;;;;;9.20;73.40;99072.69;1736156;79;21594;-67
2021/04/16 01:36:53;;;;;;;4.60;3.00;;;;;;;9.20;73.21;99077.09;1741008;80;21740;-64
2021/04/16 01:39:23;;;;;;;5.15;3.30;;;;;;;9.18;73.20;99073.22;1733185;80;21204;-65
2021/04/16 01:41:51;;;;;;;3.80;3.47;;;;;;;9.16;73.10;99072.45;1730329;81;21609;-66
2021/04/16 01:44:24;;;;;;;3.50;3.20;;;;;;;9.14;73.17;99067.27;1724769;81;21645;-65
2021/04/16 01:47:03;;;;;;;3.40;3.08;;;;;;;9.15;73.02;99065.05;1740015;80;21718;-66
2021/04/16 01:49:37;;;;;;;3.52;3.10;;;;;;;9.18;73.20;99064.05;1734360;80;21658;-66
2021/04/16 01:52:12;;;;;;;4.50;3.25;;;;;;;9.23;73.16;99067.31;1737074;79;21581;-66
2021/04/16 01:54:47;;;;;;;3.22;2.92;;;;;;;9.22;73.09;99068.22;1734631;80;21621;-66
2021/04/16 01:57:20;;;;;;;3.92;3.55;;;;;;;9.23;73.02;99063.81;1712957;81;21598;-65
2021/04/16 01:59:51;;;;;;;3.27;3.02;;;;;;;9.19;72.97;99066.20;1681787;82;22133;-67
2021/04/16 02:02:25;;;;;;;3.40;3.20;;;;;;;9.13;73.00;99067.33;1746865;79;21645;-66
2021/04/16 02:04:55;;;;;;;3.20;2.90;;;;;;;9.12;73.12;99072.20;1739489;80;21618;-67
2021/04/16 02:09:42;;;;;;;3.60;3.30;;;;;;;9.33;73.23;99071.66;1784767;78;22767;-67
2021/04/16 02:12:14;;;;;;;3.85;3.55;;;;;;;9.30;72.94;99070.48;1758061;79;21620;-67
2021/04/16 02:14:45;;;;;;;5.80;3.70;;;;;;;9.26;72.80;99071.08;1758475;80;21217;-68
2021/04/16 02:17:18;;;;;;;3.75;3.45;;;;;;;9.14;73.03;99067.27;1768392;79;21623;-70
2021/04/16 02:19:49;;;;;;;4.40;3.70;;;;;;;9.10;73.12;99068.33;1756711;80;21556;-66
2021/04/16 02:22:20;;;;;;;3.95;3.55;;;;;;;9.02;73.28;99071.74;1759550;79;21683;-67
2021/04/16 02:24:49;;;;;;;3.55;3.25;;;;;;;9.07;73.61;99058.44;1771031;79;21606;-67
2021/04/16 02:27:21;;;;;;;3.95;3.65;;;;;;;9.13;73.63;99060.30;1694653;82;22110;-64
2021/04/16 02:29:55;;;;;;;4.28;3.90;;;;;;;9.13;73.57;99066.86;1722567;81;21229;-65
2021/04/16 02:32:25;;;;;;;3.72;3.42;;;;;;;9.09;73.55;99067.92;1713709;81;21592;-64
2021/04/16 02:34:53;;;;;;;5.35;3.92;;;;;;;9.12;73.43;99069.58;1690854;81;21160;-66
2021/04/16 02:37:22;;;;;;;3.90;3.22;;;;;;;9.12;73.29;99067.80;1718522;81;21593;-68
2021/04/16 02:39:52;;;;;;;3.72;3.42;;;;;;;9.12;73.20;99070.42;1718298;81;21885;-67
2021/04/16 02:42:21;;;;;;;4.83;3.12;;;;;;;9.11;73.44;99066.55;1687557;83;21688;-67
2021/04/16 02:44:50;;;;;;;3.52;3.22;;;;;;;9.19;73.40;99067.03;1704713;83;21760;-70
2021/04/16 02:47:18;;;;;;;3.42;3.08;;;;;;;9.12;73.24;99067.80;1717272;81;21647;-68
2021/04/16 02:49:47;;;;;;;3.30;3.02;;;;;;;9.06;73.24;99069.84;1718745;82;21653;-66
2021/04/16 02:52:15;;;;;;;3.00;2.80;;;;;;;9.05;73.11;99064.22;1680645;82;21700;-66
2021/04/16 02:54:44;;;;;;;4.28;3.27;;;;;;;9.00;73.09;99063.09;1692620;82;21231;-69
2021/04/16 02:57:14;;;;;;;3.35;3.10;;;;;;;8.99;73.09;99067.12;1719767;82;21672;-68
2021/04/16 02:59:43;;;;;;;2.90;2.70;;;;;;;9.06;73.34;99065.47;1708922;82;21617;-70
2021/04/16 03:02:14;;;;;;;3.40;2.98;;;;;;;9.12;73.14;99068.27;1715173;82;21682;-71
2021/04/16 03:04:42;;;;;;;3.27;2.98;;;;;;;9.09;73.07;99063.16;1714232;82;22109;-69
2021/04/16 03:07:11;;;;;;;3.25;2.95;;;;;;;9.03;73.01;99066.91;1708820;82;21623;-67
2021/04/16 03:09:40;;;;;;;3.20;2.90;;;;;;;8.98;73.06;99067.56;1703624;82;21575;-68
2021/04/16 03:12:09;;;;;;;3.17;2.98;;;;;;;8.99;73.03;99067.97;1672519;83;21609;-68
2021/04/16 03:14:39;;;;;;;2.62;2.45;;;;;;;8.96;73.00;99067.62;1701480;83;21578;-68
2021/04/16 03:17:08;;;;;;;2.72;2.52;;;;;;;9.06;73.26;99069.84;1701239;83;21639;-68
2021/04/16 03:19:37;;;;;;;4.90;2.87;;;;;;;9.18;73.06;99065.82;1694805;83;21653;-69
2021/04/16 03:22:10;;;;;;;2.90;2.60;;;;;;;9.20;72.75;99067.91;1744433;80;21581;-68
2021/04/16 03:24:39;;;;;;;2.80;2.47;;;;;;;9.09;72.91;99069.23;1717352;82;21202;-68
2021/04/16 03:27:07;;;;;;;2.47;2.37;;;;;;;9.11;72.85;99067.86;1745304;80;21610;-68
2021/04/16 03:29:36;;;;;;;5.00;3.02;;;;;;;9.10;72.72;99064.87;1754042;80;21809;-68
2021/04/16 03:32:05;;;;;;;2.65;2.45;;;;;;;9.10;72.56;99064.40;1744319;80;21676;-68
2021/04/16 03:34:34;;;;;;;3.10;2.75;;;;;;;9.10;72.82;99068.80;1681887;84;21579;-68
2021/04/16 03:37:04;;;;;;;3.40;3.10;;;;;;;9.18;72.77;99066.66;1745899;80;21616;-65
2021/04/16 03:39:33;;;;;;;4.78;3.00;;;;;;;9.21;72.66;99073.53;1678359;82;21581;-72
2021/04/16 03:42:01;;;;;;;3.35;3.05;;;;;;;9.14;72.48;99067.73;1684275;82;22021;-65
2021/04/16 03:44:29;;;;;;;3.42;3.20;;;;;;;9.11;72.55;99073.11;1676076;82;21513;-71
2021/04/16 03:46:58;;;;;;;3.40;3.20;;;;;;;9.10;72.53;99076.67;1682445;82;21592;-66
2021/04/16 03:49:28;;;;;;;3.40;3.10;;;;;;;9.06;72.47;99075.08;1679509;82;21627;-66
2021/04/16 03:51:59;;;;;;;3.60;3.30;;;;;;;9.03;72.91;99077.39;1664616;82;21626;-67
2021/04/16 03:54:27;;;;;;;4.70;3.40;;;;;;;9.02;72.96;99084.02;1681003;82;21896;-67
2021/04/16 03:56:57;;;;;;;3.67;3.42;;;;;;;8.88;73.07;99083.33;1660811;82;21628;-66
2021/04/16 03:59:25;;;;;;;3.15;2.95;;;;;;;8.83;73.15;99083.52;1686862;82;21712;-67
2021/04/16 04:01:53;;;;;;;3.90;3.60;;;;;;;8.83;73.25;99084.83;1676919;82;21561;-67
2021/04/16 04:04:22;;;;;;;3.62;3.33;;;;;;;8.85;73.08;99076.44;1682713;82;21600;-67
2021/04/16 04:06:50;;;;;;;3.90;3.60;;;;;;;8.82;73.05;99081.84;1676615;82;21840;-67
2021/04/16 04:09:19;;;;;;;3.30;3.00;;;;;;;8.83;73.32;99081.38;1675885;82;21723;-67
2021/04/16 04:11:50;;;;;;;3.60;3.30;;;;;;;8.92;73.31;99084.42;1682491;82;21655;-65
2021/04/16 04:14:19;;;;;;;3.77;3.47;;;;;;;8.90;73.20;99083.64;1684102;82;21166;-65
2021/04/16 04:16:56;;;;;;;3.80;3.50;;;;;;;8.86;73.14;99082.09;1674433;82;21624;-67
2021/04/16 04:19:26;;;;;;;3.92;3.62;;;;;;;8.85;73.08;99080.38;1661883;83;21921;-64
2021/04/16 04:21:56;;;;;;;4.50;4.10;;;;;;;8.76;73.17;99082.12;1679809;82;21154;-66
2021/04/16 04:24:26;;;;;;;4.05;3.75;;;;;;;8.72;73.31;99085.77;1670606;82;21568;-64
2021/04/16 04:26:54;;;;;;;4.45;4.05;;;;;;;8.79;73.56;99091.61;1674278;82;21701;-65
2021/04/16 04:29:24;;;;;;;;;;;;;;;8.90;73.44;99088.05;1686607;82;21174;-65
2021/04/16 04:31:52;;;;;;;3.83;3.52;;;;;;;8.89;73.38;99087.64;1678305;82;22048;-66
2021/04/16 04:34:27;;;;;;;4.17;3.75;;;;;;;8.84;73.22;99093.10;1676059;82;21601;-66
2021/04/16 04:36:57;;;;;;;4.40;3.95;;;;;;;8.85;73.26;99092.63;1684519;82;21574;-66
2021/04/16 04:39:27;;;;;;;3.80;3.50;;;;;;;8.87;73.03;99092.10;1685211;82;21668;-65
2021/04/16 04:41:56;;;;;;;4.58;4.17;;;;;;;8.84;72.97;99094.41;1684979;82;21672;-66
2021/04/16 04:44:24;;;;;;;3.98;3.67;;;;;;;8.82;73.20;99078.37;1691040;82;22306;-64
2021/04/16 04:46:54;;;;;;;4.62;4.03;;;;;;;8.98;73.24;99094.25;1685194;82;21579;-65
2021/04/16 04:49:23;;;;;;;4.83;4.42;;;;;;;8.86;73.23;99086.02;1689704;82;21206;-65
2021/04/16 04:51:51;;;;;;;;;;;;;;;8.84;73.45;99092.26;1684448;82;21727;-65
2021/04/16 04:54:20;;;;;;;4.30;4.00;;;;;;;8.79;73.80;99085.89;1689977;82;20476;-63
2021/04/16 04:56:49;;;;;;;4.80;4.30;;;;;;;8.72;73.66;99091.01;1680797;82;22040;-64
2021/04/16 04:59:17;;;;;;;4.90;4.50;;;;;;;8.72;73.81;99092.32;1679413;82;21679;-64
2021/04/16 05:01:45;;;;;;;6.03;4.00;;;;;;;8.69;74.40;99088.55;1689205;82;21214;-65
2021/04/16 05:04:12;;;;;;;4.45;4.08;;;;;;;8.75;74.54;99089.11;1686701;82;21638;-65
2021/04/16 05:06:41;;;;;;;4.60;4.30;;;;;;;8.75;74.62;99086.48;1678129;82;21572;-63
2021/04/16 05:09:24;;;;;;;5.00;4.42;;;;;;;8.75;74.57;99091.73;1681900;82;21913;-60
2021/04/16 05:11:53;;;;;;;4.97;4.50;;;;;;;8.70;74.65;99088.92;1687328;82;21675;-60
2021/04/16 05:14:20;;;;;;;4.78;4.37;;;;;;;8.68;74.75;99096.88;1687725;82;21572;-61
2021/04/16 05:16:48;;;;;;;5.15;4.65;;;;;;;8.73;75.04;99092.26;1704834;82;21682;-61
2021/04/16 05:19:18;;;;;;;4.83;4.35;;;;;;;8.86;74.91;99090.42;1712476;82;21684;-60
2021/04/16 05:21:46;;;;;;;4.62;4.15;;;;;;;8.79;74.76;99095.53;1697740;82;22051;-62
2021/04/16 05:24:14;;;;;;;4.85;4.45;;;;;;;8.70;74.90;99088.92;1702873;82;21166;-60
2021/04/16 05:26:42;;;;;;;5.95;4.37;;;;;;;8.68;75.00;99086.83;1700268;82;21598;-62
2021/04/16 05:29:10;;;;;;;5.78;4.28;;;;;;;8.72;74.82;99086.64;1706497;82;21644;-58
2021/04/16 05:31:38;;;;;;;4.83;4.15;;;;;;;8.70;74.92;99087.61;1700267;82;22382;-59
2021/04/16 05:34:07;;;;;;;5.25;4.85;;;;;;;8.69;75.04;99089.85;1706519;82;22017;-60
2021/04/16 05:36:35;;;;;;;4.62;4.28;;;;;;;8.58;75.01;99091.16;1691829;82;21301;-63
2021/04/16 05:39:03;;;;;;;4.08;3.77;;;;;;;8.55;75.14;99096.98;1688160;82;21671;-60
2021/04/16 05:41:50;;;;;;;4.75;4.20;;;;;;;8.55;75.10;99093.93;1679080;82;22390;-60
2021/04/16 05:44:18;;;;;;;4.58;3.67;;;;;;;8.51;75.02;99089.74;1689413;82;22383;-67
2021/04/16 05:46:50;;;;;;;5.22;4.72;;;;;;;8.54;75.39;99090.06;1685075;82;21848;-63
2021/04/16 05:49:19;;;;;;;6.17;4.22;;;;;;;8.61;75.76;99086.27;1678663;82;21662;-65
2021/04/16 05:51:47;;;;;;;4.08;3.77;;;;;;;8.56;75.49;99086.91;1676503;82;21139;-67
2021/04/16 05:54:15;;;;;;;;;;;;;;;8.58;75.39;99094.24;1691195;82;21600;-61
2021/04/16 05:56:43;;;;;;;4.92;4.42;;;;;;;8.52;75.46;99086.66;1684037;82;20608;-60
2021/04/16 05:59:11;;;;;;;4.40;4.00;;;;;;;8.44;75.58;99091.36;1692320;82;21985;-59
2021/04/16 06:01:40;;;;;;;6.25;4.30;;;;;;;8.42;75.98;99089.27;1707941;82;22249;-59
2021/04/16 06:04:07;;;;;;;;;;;;;;;8.49;76.12;99091.55;1705099;82;21766;-58
2021/04/16 06:06:35;;;;;;;4.35;3.87;;;;;;;8.53;76.16;99085.72;1704615;82;20611;-64
2021/04/16 06:09:04;;;;;;;4.72;4.33;;;;;;;8.56;76.14;99094.30;1704081;82;21218;-58
2021/04/16 06:11:33;;;;;;;5.72;4.20;;;;;;;8.56;76.04;99091.69;1708983;82;22149;-59
2021/04/16 06:14:01;;;;;;;5.05;4.00;;;;;;;8.54;75.91;99093.52;1701831;82;21656;-62
2021/04/16 06:16:29;;;;;;;4.00;3.50;;;;;;;8.60;76.28;99092.88;1701551;82;21639;-61
2021/04/16 06:18:57;;;;;;;4.00;3.70;;;;;;;8.78;76.12;99092.08;1701786;81;21639;-60
2021/04/16 06:21:25;;;;;;;4.60;4.20;;;;;;;8.82;75.91;99096.25;1708893;82;21182;-57
2021/04/16 06:23:53;;;;;;;4.42;4.03;;;;;;;8.83;75.55;99096.63;1707883;81;21643;-58
2021/04/16 06:26:23;;;;;;;4.78;4.37;;;;;;;8.81;75.64;99103.72;1687744;82;21616;-56
2021/04/16 06:28:51;;;;;;;4.20;3.85;;;;;;;8.77;75.72;99099.06;1680934;82;21687;-59
2021/04/16 06:31:19;;;;;;;4.42;4.03;;;;;;;8.74;76.14;99112.33;1702702;81;21694;-59
2021/04/16 06:33:47;;;;;;;4.75;4.35;;;;;;;8.88;76.04;99103.84;1706052;82;21939;-57
2021/04/16 06:36:18;;;;;;;4.60;4.20;;;;;;;8.89;75.49;99107.30;1704930;82;22065;-62
2021/04/16 06:38:47;;;;;;;4.37;3.98;;;;;;;8.87;75.36;99108.70;1702539;80;21222;-61
2021/04/16 06:41:27;;;;;;;4.37;3.98;;;;;;;8.89;75.20;99108.18;1702741;81;21703;-62
2021/04/16 06:44:01;;;;;;;4.30;4.00;;;;;;;8.94;75.12;99111.89;1698262;81;21664;-59
2021/04/16 06:46:36;;;;;;;4.55;4.15;;;;;;;9.03;75.20;99106.70;1677214;82;21162;-61
2021/04/16 06:49:08;;;;;;;4.55;3.95;;;;;;;9.10;75.03;99108.98;1701015;82;22043;-62
2021/04/16 06:51:40;;;;;;;4.53;4.03;;;;;;;9.11;74.92;99112.45;1703232;82;21632;-59
2021/04/16 06:54:14;;;;;;;4.83;4.35;;;;;;;9.11;74.69;99113.76;1657751;82;21647;-65
2021/04/16 06:56:45;;;;;;;6.65;5.90;;;;;;;9.10;74.85;99114.23;1683448;82;21677;-65
2021/04/16 06:59:28;;;;;;;5.42;4.92;;;;;;;9.10;74.77;99118.16;1685874;82;21711;-64
2021/04/16 07:02:02;;;;;;;6.65;5.92;;;;;;;9.14;74.78;99117.56;1688091;82;21640;-66
2021/04/16 07:04:52;;;;;;;5.65;5.15;;;;;;;9.23;74.82;99117.59;1683451;82;21669;-64
2021/04/16 07:07:38;;;;;;;5.40;4.90;;;;;;;9.20;75.07;99119.06;1686368;82;21596;-67
2021/04/16 07:10:25;;;;;;;5.47;4.97;;;;;;;9.23;74.71;99123.70;1679972;82;21170;-66
2021/04/16 07:12:53;;;;;;;5.00;4.55;;;;;;;9.26;74.54;99123.55;1688122;82;21222;-66
2021/04/16 07:15:43;;;;;;;4.47;4.08;;;;;;;9.27;74.18;99125.27;1695851;82;22074;-66
2021/04/16 07:18:13;;;;;;;4.55;4.15;;;;;;;9.23;74.89;99121.09;1637368;86;22435;-67
2021/04/16 07:20:42;;;;;;;4.70;4.30;;;;;;;9.35;74.81;99122.28;1601019;86;21648;-74
2021/04/16 07:23:11;;;;;;;4.55;4.12;;;;;;;9.32;74.32;99124.60;1614495;86;21624;-69
2021/04/16 07:25:43;;;;;;;4.60;4.20;;;;;;;9.24;74.21;99119.30;1612818;86;21736;-73
2021/04/16 07:28:53;;;;;;;5.75;5.08;;;;;;;9.21;74.22;99123.37;1642862;85;21949;-67
2021/04/16 07:34:35;;;;;;;4.45;4.10;;;;;;;9.35;74.47;99116.57;1860601;75;23341;-68
2021/04/16 07:37:15;;;;;;;4.25;3.95;;;;;;;9.41;74.56;99119.38;1771118;78;21632;-63
2021/04/16 07:40:45;;;;;;;6.17;4.87;;;;;;;9.51;74.27;99122.41;1795912;78;21906;-61
2021/04/16 07:43:49;;;;;;;6.83;5.97;;;;;;;9.57;74.21;99123.90;1790961;78;21583;-63
2021/04/16 07:46:29;;;;;;;6.10;5.45;;;;;;;9.69;73.83;99127.27;1797938;78;21694;-60
2021/04/16 07:49:19;;;;;;;5.53;4.80;;;;;;;9.81;73.44;99125.36;1761539;79;21607;-61
2021/04/16 07:51:48;;;;;;;8.05;5.87;;;;;;;9.93;72.73;99128.72;1767480;78;21560;-67
2021/04/16 07:54:29;;;;;;;8.65;6.55;;;;;;;9.93;72.06;99134.45;1763762;80;22120;-67
2021/04/16 07:57:13;;;;;;;14.63;7.40;;;;;;;9.93;72.20;99130.51;1765300;79;21639;-73
2021/04/16 08:00:01;;;;;;;9.23;5.87;;;;;;;9.97;71.73;99129.42;1792774;78;21814;-70
2021/04/16 08:02:35;;;;;;;7.15;5.20;;;;;;;9.94;71.06;99129.12;1766817;79;21622;-68
2021/04/16 08:05:26;;;;;;;3.98;3.67;;;;;;;9.85;71.41;99132.63;1770247;78;21627;-66
2021/04/16 08:08:21;;;;;;;5.65;5.00;;;;;;;9.88;71.11;99132.02;1790886;78;21914;-67
2021/04/16 08:11:14;;;;;;;4.95;4.05;;;;;;;9.90;71.28;99132.80;1785657;78;21644;-68
2021/04/16 08:13:50;;;;;;;4.00;3.70;;;;;;;9.87;71.30;99137.34;1699306;82;21635;-67
2021/04/16 08:16:29;;;;;;;4.47;3.40;;;;;;;9.87;71.65;99135.59;1695712;82;21201;-66
2021/04/16 08:19:25;;;;;;;3.95;3.58;;;;;;;9.93;71.78;99133.13;1700030;82;21567;-63
2021/04/16 08:22:04;;;;;;;4.67;4.28;;;;;;;10.02;71.86;99130.50;1694254;82;22126;-68
2021/04/16 08:24:54;;;;;;;4.97;4.45;;;;;;;10.04;71.74;99132.16;1697424;82;21628;-65
2021/04/16 08:27:52;;;;;;;3.85;3.55;;;;;;;10.04;71.36;99136.53;1692813;82;21593;-63
2021/04/16 08:30:28;;;;;;;4.25;3.83;;;;;;;10.02;71.83;99131.38;1689911;82;21720;-65
2021/04/16 08:33:20;;;;;;;3.80;3.50;;;;;;;9.96;71.45;99135.59;1717059;81;21669;-63
2021/04/16 08:36:19;;;;;;;3.98;3.60;;;;;;;10.01;71.66;99136.70;1716272;81;22152;-70
2021/04/16 08:39:02;;;;;;;4.17;3.77;;;;;;;10.10;71.45;99133.16;1725237;80;21685;-65
2021/04/16 08:41:31;;;;;;;4.10;3.60;;;;;;;10.13;70.75;99135.64;1703538;81;21216;-65
2021/04/16 08:44:05;;;;;;;5.50;4.42;;;;;;;10.16;70.58;99142.52;1702969;81;21237;-71
2021/04/16 08:46:39;;;;;;;3.33;3.12;;;;;;;10.16;70.90;99144.30;1692580;82;21700;-65
2021/04/16 08:49:21;;;;;;;4.83;4.15;;;;;;;10.16;71.37;99148.23;1711582;81;22037;-64
2021/04/16 08:51:54;;;;;;;5.08;4.67;;;;;;;10.24;71.46;99142.13;1690239;82;21701;-65
2021/04/16 08:54:25;;;;;;;5.22;4.50;;;;;;;10.21;71.26;99145.77;1709769;81;21645;-63
2021/04/16 08:57:24;;;;;;;4.75;4.35;;;;;;;10.14;70.97;99146.99;1690399;82;21548;-63
2021/04/16 09:00:06;;;;;;;4.83;4.42;;;;;;;10.03;71.00;99146.20;1693998;82;21451;-65
2021/04/16 09:02:48;;;;;;;4.75;4.05;;;;;;;9.97;70.85;99150.44;1692058;82;22043;-64
2021/04/16 09:05:30;;;;;;;4.45;4.03;;;;;;;9.78;71.23;99147.00;1688284;82;21163;-63
2021/04/16 09:08:08;;;;;;;5.05;4.55;;;;;;;9.72;72.38;99154.70;1660058;84;21585;-63
2021/04/16 09:10:50;;;;;;;4.30;3.90;;;;;;;9.68;72.43;99147.87;1681892;82;21664;-64
2021/04/16 09:13:44;;;;;;;4.45;4.15;;;;;;;9.69;72.89;99146.49;1710948;81;21720;-66
2021/04/16 09:16:21;;;;;;;5.00;4.53;;;;;;;9.79;72.41;99153.47;1683204;82;21887;-63
2021/04/16 09:18:53;;;;;;;6.10;4.95;;;;;;;9.76;72.93;99157.56;1695941;82;21595;-65
2021/04/16 09:21:31;;;;;;;5.92;4.72;;;;;;;9.72;72.69;99150.77;1713942;81;21579;-64
2021/04/16 09:24:11;;;;;;;6.87;4.90;;;;;;;9.85;72.71;99155.83;1717686;81;21609;-63
2021/04/16 09:26:51;;;;;;;7.70;4.87;;;;;;;9.98;72.25;99157.38;1707374;81;21582;-65
2021/04/16 09:29:37;;;;;;;6.55;5.20;;;;;;;10.01;71.97;99155.92;1711502;81;21674;-64
2021/04/16 09:32:39;;;;;;;6.40;5.80;;;;;;;9.96;71.76;99158.39;1715654;81;21684;-63
2021/04/16 09:35:21;;;;;;;7.42;5.85;;;;;;;9.80;72.16;99155.18;1712619;82;21516;-63
2021/04/16 09:37:52;;;;;;;5.67;4.45;;;;;;;9.84;72.54;99155.89;1713766;81;21681;-64
2021/04/16 09:40:26;;;;;;;5.97;4.53;;;;;;;9.88;72.64;99158.28;1717314;80;21684;-66
2021/04/16 09:43:01;;;;;;;5.42;4.50;;;;;;;9.97;72.13;99160.10;1697164;81;21911;-64
2021/04/16 09:45:35;;;;;;;4.65;4.25;;;;;;;9.96;71.75;99163.64;1690231;82;21165;-64
2021/04/16 09:48:09;;;;;;;4.12;3.72;;;;;;;9.88;71.24;99164.84;1696887;82;21211;-63
2021/04/16 09:50:43;;;;;;;5.08;4.55;;;;;;;9.84;71.38;99158.52;1689487;82;21577;-68
2021/04/16 09:53:25;;;;;;;3.98;3.62;;;;;;;9.83;71.37;99160.73;1696524;82;21663;-65
2021/04/16 09:56:01;;;;;;;5.70;4.70;;;;;;;9.83;71.39;99163.36;1701420;82;21726;-65
2021/04/16 09:58:39;;;;;;;6.85;4.95;;;;;;;9.83;71.63;99160.73;1712934;81;21636;-64
2021/04/16 10:01:09;;;;;;;4.90;4.20;;;;;;;9.87;71.49;99160.54;1718709;81;21239;-67
2021/04/16 10:04:02;;;;;;;5.80;4.78;;;;;;;9.88;71.44;99160.91;1717346;81;22200;-62
2021/04/16 10:06:42;;;;;;;5.83;4.95;;;;;;;9.89;71.31;99159.16;1714362;81;21682;-59
2021/04/16 10:09:22;;;;;;;6.35;4.92;;;;;;;9.85;71.20;99164.14;1713245;81;22033;-60
2021/04/16 10:12:04;;;;;;;4.70;4.15;;;;;;;9.88;71.16;99159.59;1689112;82;21692;-60
2021/04/16 10:14:35;;;;;;;5.03;4.53;;;;;;;9.93;71.35;99165.96;1686985;82;21468;-63
2021/04/16 10:17:16;;;;;;;5.25;4.85;;;;;;;9.98;71.97;99163.09;1675675;82;21665;-61
2021/04/16 10:19:49;;;;;;;6.83;5.25;;;;;;;10.01;72.01;99169.06;1680653;83;21638;-62
2021/04/16 10:22:31;;;;;;;6.15;5.03;;;;;;;9.94;72.67;99168.95;1671384;83;22007;-65
2021/04/16 12:41:20;;;;;;;11.28;6.87;;;;;;;11.12;67.49;99166.64;1810997;77;21543;-62
2021/04/16 12:43:48;;;;;;;6.50;5.08;;;;;;;11.05;67.70;99163.00;1813757;76;21896;-65
2021/04/16 12:46:20;;;;;;;8.03;5.30;;;;;;;11.13;67.68;99163.91;1821501;77;22528;-61
2021/04/16 12:48:48;;;;;;;5.90;5.40;;;;;;;11.20;67.50;99164.45;1812847;76;21217;-62
2021/04/16 12:51:16;;;;;;;6.05;5.47;;;;;;;11.21;67.26;99161.73;1814640;77;21255;-62
2021/04/16 12:53:44;;;;;;;5.60;5.12;;;;;;;11.17;67.22;99161.53;1814077;76;21607;-65
2021/04/16 12:56:17;;;;;;;7.65;6.08;;;;;;;11.15;67.15;99156.81;1827852;76;22131;-64
2021/04/16 12:58:45;;;;;;;9.35;6.10;;;;;;;11.19;67.08;99160.10;1816402;77;21671;-63
2021/04/16 13:01:20;;;;;;;7.40;5.75;;;;;;;11.18;66.88;99155.31;1817021;76;21627;-62
2021/04/16 13:03:55;;;;;;;6.67;5.35;;;;;;;11.23;66.58;99154.61;1814682;76;22943;-60
2021/04/16 13:06:30;;;;;;;6.12;5.62;;;;;;;11.14;66.22;99158.20;1798076;78;21540;-61
2021/04/16 13:08:57;;;;;;;5.85;5.35;;;;;;;11.04;65.99;99151.27;1795344;77;22060;-63
2021/04/16 13:11:27;;;;;;;7.58;5.83;;;;;;;10.99;66.32;99161.17;1796046;78;21631;-62
2021/04/16 13:13:55;;;;;;;6.45;5.67;;;;;;;10.96;66.59;99160.00;1789466;77;21627;-62
2021/04/16 13:16:24;;;;;;;6.80;5.90;;;;;;;11.03;67.26;99160.08;1789752;78;21567;-63
2021/04/16 13:19:22;;;;;;;5.78;5.25;;;;;;;11.08;66.87;99159.38;1788581;77;21686;-63
2021/04/16 13:21:49;;;;;;;6.70;5.45;;;;;;;11.07;67.08;99154.55;1693537;82;22175;-61
2021/04/16 13:24:17;;;;;;;6.87;5.67;;;;;;;11.17;66.93;99156.70;1701358;82;21610;-62
2021/04/16 13:26:45;;;;;;;6.42;5.80;;;;;;;11.17;66.93;99156.70;1703433;81;21623;-62
2021/04/16 13:29:13;;;;;;;;;;;;;;;11.20;66.60;99156.55;1705264;82;21186;-67
2021/04/16 13:31:41;;;;;;;6.70;6.10;;;;;;;11.10;66.54;99135.15;1702426;83;20583;-61
2021/04/16 13:34:10;;;;;;;7.08;6.40;;;;;;;11.13;66.68;99149.44;1697259;82;21933;-62
2021/04/16 13:36:38;;;;;;;6.40;5.90;;;;;;;11.13;66.63;99157.80;1672217;82;21628;-63
2021/04/16 13:39:07;;;;;;;6.53;5.92;;;;;;;11.14;66.57;99155.09;1704425;82;21675;-60
2021/04/16 13:41:36;;;;;;;6.22;5.62;;;;;;;11.13;66.82;99153.38;1701801;82;21182;-62
2021/04/16 13:44:05;;;;;;;6.47;5.87;;;;;;;11.16;67.32;99149.28;1704762;82;22051;-60
2021/04/16 13:46:35;;;;;;;6.40;5.80;;;;;;;11.22;66.67;99153.38;1702468;81;22001;-62
2021/04/16 13:49:07;;;;;;;6.12;5.62;;;;;;;11.16;66.45;99155.86;1661456;83;21628;-63
2021/04/16 13:51:37;;;;;;;6.53;5.92;;;;;;;11.10;66.22;99150.46;1665137;84;21236;-64
2021/04/16 13:54:06;;;;;;;7.97;6.20;;;;;;;11.04;66.27;99160.00;1667622;84;21673;-64
2021/04/16 13:56:35;;;;;;;7.00;6.40;;;;;;;11.04;66.45;99163.10;1661780;84;21753;-64
2021/04/16 13:59:03;;;;;;;7.40;6.65;;;;;;;11.04;66.67;99161.31;1668157;84;21984;-64
2021/04/16 14:01:31;;;;;;;9.10;7.20;;;;;;;11.03;67.16;99164.86;1662579;83;21591;-59
2021/04/16 14:04:02;;;;;;;6.45;5.85;;;;;;;10.99;67.48;99161.17;1672206;83;21619;-60
2021/04/16 14:06:36;;;;;;;7.12;6.40;;;;;;;10.98;68.05;99163.41;1644374;84;21604;-61
2021/04/16 14:09:13;;;;;;;7.22;6.15;;;;;;;11.00;68.43;99165.48;1668591;83;21725;-61
2021/04/16 14:11:41;;;;;;;6.97;6.28;;;;;;;10.95;68.69;99162.27;1642830;84;21778;-58
2021/04/16 14:14:16;;;;;;;7.87;7.10;;;;;;;10.89;68.80;99161.64;1660336;84;21592;-59
2021/04/16 14:16:45;;;;;;;7.35;6.70;;;;;;;10.77;69.00;99163.58;1667664;84;22414;-58
2021/04/16 14:19:20;;;;;;;10.82;6.95;;;;;;;10.72;69.20;99162.98;1664470;84;21764;-63
2021/04/16 14:21:51;;;;;;;7.85;6.45;;;;;;;10.65;69.59;99163.74;1666868;84;21574;-60
2021/04/16 14:26:04;;;;;;;8.15;6.92;;;;;;;10.80;70.48;99160.80;1794265;78;23111;-55
2021/04/16 14:28:32;;;;;;;8.45;7.50;;;;;;;10.74;70.21;99163.75;1759569;79;21617;-57
2021/04/16 14:31:02;;;;;;;8.33;7.22;;;;;;;10.70;70.33;99167.00;1762781;79;22202;-59
2021/04/16 14:33:33;;;;;;;10.00;8.75;;;;;;;10.66;70.50;99164.59;1705311;82;21684;-62
2021/04/16 14:36:04;;;;;;;11.03;8.48;;;;;;;10.60;70.49;99164.91;1696585;82;21530;-60